createdAt,value
2024-01-24T00:00:25.531Z,114.36
2024-01-24T00:02:28.269Z,114.82
2024-01-24T00:04:31.059Z,117.64
2024-01-24T00:06:33.896Z,124.73
2024-01-24T00:08:36.630Z,125.82
2024-01-24T00:10:39.382Z,118.27
2024-01-24T00:12:42.127Z,113.55
2024-01-24T00:14:44.876Z,114.00
2024-01-24T00:16:47.598Z,115.73
2024-01-24T00:18:50.482Z,124.18
2024-01-24T00:20:55.315Z,123.91
2024-01-24T00:22:58.139Z,121.73
2024-01-24T00:25:00.863Z,116.55
2024-01-24T00:27:03.680Z,118.27
2024-01-24T00:29:06.414Z,125.64
2024-01-24T00:31:09.546Z,124.36
2024-01-24T00:33:12.403Z,115.55
2024-01-24T00:35:15.299Z,114.82
2024-01-24T00:37:18.104Z,111.55
2024-01-24T00:39:20.856Z,105.09
2024-01-24T00:41:23.693Z,102.82
2024-01-24T00:43:27.216Z,104.82
2024-01-24T00:45:30.044Z,103.00
2024-01-24T00:47:32.996Z,99.55
2024-01-24T00:49:35.833Z,122.27
2024-01-24T00:51:38.902Z,127.91
2024-01-24T00:53:41.699Z,126.82
2024-01-24T00:55:47.163Z,123.18
2024-01-24T00:57:50.062Z,109.64
2024-01-24T00:59:52.825Z,99.45
2024-01-24T01:01:55.622Z,94.09
2024-01-24T01:03:58.484Z,92.27
2024-01-24T01:06:01.270Z,95.55
2024-01-24T01:08:04.317Z,99.18
2024-01-24T01:10:09.608Z,100.36
2024-01-24T01:12:12.408Z,100.55
2024-01-24T01:14:15.172Z,102.00
2024-01-24T01:16:17.908Z,107.18
2024-01-24T01:18:20.662Z,111.18
2024-01-24T01:20:23.394Z,112.36
2024-01-24T01:22:26.190Z,121.64
2024-01-24T01:24:28.961Z,103.18
2024-01-24T01:26:34.020Z,98.73
2024-01-24T01:28:36.770Z,100.36
2024-01-24T01:30:40.154Z,103.82
2024-01-24T01:32:43.268Z,105.73
2024-01-24T01:34:46.130Z,106.00
2024-01-24T01:36:48.959Z,105.55
2024-01-24T01:38:51.780Z,92.18
2024-01-24T01:40:54.541Z,86.73
2024-01-24T01:42:57.846Z,91.91
2024-01-24T01:45:00.617Z,95.00
2024-01-24T01:47:03.907Z,94.18
2024-01-24T01:49:08.334Z,93.82
2024-01-24T01:51:12.601Z,93.09
2024-01-24T01:53:17.141Z,97.55
2024-01-24T01:55:20.078Z,105.55
2024-01-24T01:57:22.958Z,105.27
2024-01-24T01:59:27.069Z,105.00
2024-01-24T02:01:30.039Z,104.36
2024-01-24T02:03:33.221Z,103.36
2024-01-24T02:05:38.902Z,106.82
2024-01-24T02:07:45.308Z,111.73
2024-01-24T02:09:48.300Z,111.73
2024-01-24T02:11:51.158Z,110.09
2024-01-24T02:14:00.678Z,110.00
2024-01-24T02:16:04.776Z,108.82
2024-01-24T02:18:07.675Z,108.27
2024-01-24T02:20:13.575Z,126.27
2024-01-24T02:22:16.351Z,129.82
2024-01-24T02:24:19.174Z,129.18
2024-01-24T02:26:21.961Z,125.91
2024-01-24T02:28:24.984Z,120.36
2024-01-24T02:30:27.784Z,102.55
2024-01-24T02:32:30.578Z,91.45
2024-01-24T02:34:33.542Z,67.45
2024-01-24T02:36:36.501Z,73.27
2024-01-24T02:38:39.245Z,68.00
2024-01-24T02:40:42.145Z,73.27
2024-01-24T02:42:44.936Z,76.55
2024-01-24T02:44:47.831Z,78.73
2024-01-24T02:46:50.588Z,82.09
2024-01-24T02:48:53.474Z,83.00
2024-01-24T02:50:56.310Z,95.82
2024-01-24T02:52:59.165Z,103.18
2024-01-24T02:55:02.078Z,97.55
2024-01-24T02:57:05.997Z,84.27
2024-01-24T02:59:08.789Z,73.73
2024-01-24T03:01:11.706Z,66.64
2024-01-24T03:03:14.549Z,68.82
2024-01-24T03:05:17.359Z,69.73
2024-01-24T03:07:20.131Z,71.55
2024-01-24T03:09:23.468Z,72.00
2024-01-24T03:11:26.519Z,72.64
2024-01-24T03:13:29.326Z,80.09
2024-01-24T03:15:32.182Z,92.27
2024-01-24T03:17:35.258Z,96.91
2024-01-24T03:19:38.114Z,94.27
2024-01-24T03:21:41.763Z,116.18
2024-01-24T03:23:45.172Z,117.45
2024-01-24T03:25:47.923Z,106.45
2024-01-24T03:27:50.718Z,88.18
2024-01-24T03:29:53.610Z,80.09
2024-01-24T03:31:56.336Z,83.64
2024-01-24T03:33:59.207Z,90.18
2024-01-24T03:36:02.009Z,85.36
2024-01-24T03:38:05.566Z,81.00
2024-01-24T03:40:08.937Z,82.55
2024-01-24T03:42:11.687Z,147.55
2024-01-24T03:44:14.471Z,163.55
2024-01-24T03:46:21.384Z,140.45
2024-01-24T03:48:24.387Z,114.82
2024-01-24T03:50:27.176Z,113.00
2024-01-24T03:52:30.293Z,122.09
2024-01-24T03:54:33.099Z,110.18
2024-01-24T03:56:35.875Z,108.27
2024-01-24T03:58:38.807Z,111.36
2024-01-24T04:00:41.629Z,123.82
2024-01-24T04:02:44.446Z,126.00
2024-01-24T04:04:47.217Z,114.36
2024-01-24T04:06:50.208Z,96.27
2024-01-24T04:08:53.060Z,88.82
2024-01-24T04:10:55.974Z,86.91
2024-01-24T04:12:58.750Z,82.82
2024-01-24T04:15:01.622Z,83.45
2024-01-24T04:17:04.373Z,86.45
2024-01-24T04:19:07.928Z,87.00
2024-01-24T04:21:10.700Z,88.27
2024-01-24T04:23:13.493Z,87.00
2024-01-24T04:25:16.403Z,79.82
2024-01-24T04:27:19.457Z,91.00
2024-01-24T04:29:22.209Z,97.00
2024-01-24T04:31:24.949Z,94.18
2024-01-24T04:33:27.769Z,90.00
2024-01-24T04:35:30.664Z,87.55
2024-01-24T04:37:33.407Z,85.55
2024-01-24T04:39:36.165Z,85.09
2024-01-24T04:41:41.294Z,86.18
2024-01-24T04:43:44.288Z,110.45
2024-01-24T04:45:47.163Z,321.73
2024-01-24T04:47:49.972Z,287.55
2024-01-24T04:49:52.843Z,205.55
2024-01-24T04:51:55.696Z,139.18
2024-01-24T04:53:58.462Z,111.00
2024-01-24T04:56:01.237Z,100.64
2024-01-24T04:58:04.500Z,93.73
2024-01-24T05:00:09.274Z,107.09
2024-01-24T05:02:12.018Z,116.27
2024-01-24T05:04:14.857Z,128.09
2024-01-24T05:06:17.745Z,155.27
2024-01-24T05:08:20.524Z,158.45
2024-01-24T05:10:23.277Z,151.55
2024-01-24T05:12:26.073Z,121.18
2024-01-24T05:14:29.515Z,117.18
2024-01-24T05:16:32.284Z,117.64
2024-01-24T05:18:35.143Z,140.91
2024-01-24T05:20:38.411Z,177.55
2024-01-24T05:22:41.184Z,207.45
2024-01-24T05:24:47.429Z,198.91
2024-01-24T05:26:50.197Z,157.73
2024-01-24T05:28:52.969Z,156.00
2024-01-24T05:30:55.817Z,157.36
2024-01-24T05:32:59.234Z,160.00
2024-01-24T05:35:02.225Z,171.00
2024-01-24T05:37:05.112Z,212.36
2024-01-24T05:39:08.818Z,197.45
2024-01-24T05:41:11.780Z,154.45
2024-01-24T05:43:14.559Z,148.82
2024-01-24T05:45:17.315Z,150.55
2024-01-24T05:47:20.060Z,165.82
2024-01-24T05:49:22.907Z,163.27
2024-01-24T05:51:25.764Z,123.36
2024-01-24T05:53:28.863Z,120.18
2024-01-24T05:55:31.672Z,124.91
2024-01-24T05:57:34.429Z,133.09
2024-01-24T05:59:37.328Z,175.00
2024-01-24T06:01:40.273Z,184.55
2024-01-24T06:03:43.208Z,184.73
2024-01-24T06:05:46.240Z,173.45
2024-01-24T06:07:50.933Z,165.73
2024-01-24T06:09:53.828Z,136.73
2024-01-24T06:11:56.662Z,129.82
2024-01-24T06:13:59.509Z,109.73
2024-01-24T06:16:02.999Z,116.45
2024-01-24T06:18:05.973Z,99.18
2024-01-24T06:20:10.420Z,80.64
2024-01-24T06:22:13.210Z,89.45
2024-01-24T06:24:16.285Z,94.64
2024-01-24T06:26:19.109Z,173.36
2024-01-24T06:28:21.850Z,300.91
2024-01-24T06:30:26.745Z,170.00
2024-01-24T06:32:30.929Z,158.27
2024-01-24T06:34:33.763Z,86.73
2024-01-24T06:36:36.707Z,43.55
2024-01-24T06:38:39.472Z,32.45
2024-01-24T06:40:42.366Z,16.00
2024-01-24T06:42:45.128Z,15.73
2024-01-24T06:44:47.868Z,14.45
2024-01-24T06:46:50.645Z,14.09
2024-01-24T06:48:53.777Z,11.55
2024-01-24T06:50:56.676Z,13.09
2024-01-24T06:52:59.822Z,14.73
2024-01-24T06:55:03.077Z,18.73
2024-01-24T06:57:05.820Z,21.64
2024-01-24T06:59:08.599Z,21.27
2024-01-24T07:01:14.793Z,19.55
2024-01-24T07:03:20.368Z,19.09
2024-01-24T07:05:24.996Z,19.00
2024-01-24T07:07:27.804Z,19.00
2024-01-24T07:09:30.710Z,19.00
2024-01-24T07:11:33.605Z,19.00
2024-01-24T07:13:37.829Z,19.36
2024-01-24T07:15:41.000Z,20.73
2024-01-24T07:17:44.159Z,24.36
2024-01-24T07:19:48.367Z,27.73
2024-01-24T07:21:52.296Z,32.00
2024-01-24T07:23:55.602Z,33.36
2024-01-24T07:25:58.704Z,34.09
2024-01-24T07:28:01.479Z,37.45
2024-01-24T07:30:05.727Z,47.18
2024-01-24T07:32:11.166Z,49.00
2024-01-24T07:34:14.010Z,49.09
2024-01-24T07:36:17.056Z,41.00
2024-01-24T07:38:20.054Z,31.36
2024-01-24T07:40:22.789Z,28.82
2024-01-24T07:42:25.535Z,28.27
2024-01-24T07:44:28.319Z,28.00
2024-01-24T07:46:33.931Z,28.91
2024-01-24T07:48:37.541Z,30.73
2024-01-24T07:50:40.518Z,30.00
2024-01-24T07:52:44.754Z,28.82
2024-01-24T07:54:47.670Z,26.82
2024-01-24T07:56:50.473Z,27.82
2024-01-24T07:58:54.414Z,39.27
2024-01-24T08:00:57.392Z,43.91
2024-01-24T08:03:00.406Z,42.09
2024-01-24T08:05:03.882Z,40.82
2024-01-24T08:07:07.010Z,40.73
2024-01-24T08:09:11.240Z,42.55
2024-01-24T08:11:16.442Z,53.82
2024-01-24T08:13:20.233Z,70.64
2024-01-24T08:15:23.030Z,99.91
2024-01-24T08:17:26.597Z,121.27
2024-01-24T08:19:29.646Z,88.45
2024-01-24T08:21:32.890Z,53.45
2024-01-24T08:23:42.878Z,64.36
2024-01-24T08:25:51.946Z,103.73
2024-01-24T08:27:54.885Z,80.82
2024-01-24T08:29:58.369Z,94.45
2024-01-24T08:32:01.345Z,90.00
2024-01-24T08:34:04.309Z,94.55
2024-01-24T08:36:07.140Z,84.55
2024-01-24T08:38:10.974Z,53.36
2024-01-24T08:40:13.783Z,52.45
2024-01-24T08:42:16.649Z,52.91
2024-01-24T08:44:19.564Z,62.73
2024-01-24T08:46:22.360Z,67.18
2024-01-24T08:48:26.292Z,45.09
2024-01-24T08:50:29.197Z,43.82
2024-01-24T08:52:36.165Z,41.82
2024-01-24T08:54:39.567Z,46.82
2024-01-24T08:56:42.614Z,64.36
2024-01-24T08:58:45.781Z,56.82
2024-01-24T09:00:48.731Z,65.45
2024-01-24T09:02:51.832Z,54.73
2024-01-24T09:04:56.366Z,49.73
2024-01-24T09:06:59.301Z,42.91
2024-01-24T09:09:02.258Z,41.45
2024-01-24T09:11:05.591Z,41.55
2024-01-24T09:13:08.556Z,37.18
2024-01-24T09:15:11.439Z,38.36
2024-01-24T09:17:14.981Z,32.27
2024-01-24T09:19:18.192Z,30.64
2024-01-24T09:21:21.129Z,31.27
2024-01-24T09:23:24.006Z,28.00
2024-01-24T09:25:26.936Z,29.45
2024-01-24T09:27:30.241Z,28.00
2024-01-24T09:29:33.048Z,28.64
2024-01-24T09:31:35.885Z,67.45
2024-01-24T09:33:40.191Z,54.91
2024-01-24T09:35:45.316Z,37.27
2024-01-24T09:37:48.166Z,34.18
2024-01-24T09:39:52.282Z,34.18
2024-01-24T09:41:57.089Z,56.55
2024-01-24T09:44:05.106Z,36.73
2024-01-24T09:46:13.589Z,81.82
2024-01-24T09:48:18.156Z,68.09
2024-01-24T09:50:23.289Z,71.73
2024-01-24T09:52:28.064Z,67.73
2024-01-24T09:54:32.739Z,45.18
2024-01-24T09:56:39.753Z,95.27
2024-01-24T09:58:42.584Z,102.55
2024-01-24T10:00:45.772Z,89.00
2024-01-24T10:02:48.982Z,84.36
2024-01-24T10:04:53.479Z,91.82
2024-01-24T10:06:56.986Z,109.91
2024-01-24T10:09:00.552Z,113.36
2024-01-24T10:11:03.436Z,97.91
2024-01-24T10:13:07.833Z,60.18
2024-01-24T10:15:11.475Z,51.91
2024-01-24T10:17:14.961Z,41.36
2024-01-24T10:19:22.568Z,43.18
2024-01-24T10:21:27.236Z,34.18
2024-01-24T10:23:30.710Z,26.64
2024-01-24T10:25:33.543Z,25.18
2024-01-24T10:27:38.731Z,51.36
2024-01-24T10:29:44.196Z,91.00
2024-01-24T10:31:47.451Z,85.45
2024-01-24T10:33:55.273Z,85.18
2024-01-24T10:36:03.038Z,72.18
2024-01-24T10:38:13.828Z,51.00
2024-01-24T10:40:17.721Z,51.00
2024-01-24T10:42:23.825Z,47.36
2024-01-24T10:44:26.856Z,38.82
2024-01-24T10:46:30.258Z,55.82
2024-01-24T10:48:36.410Z,88.82
2024-01-24T10:50:51.649Z,58.64
2024-01-24T10:53:00.202Z,41.82
2024-01-24T10:55:14.761Z,38.27
2024-01-24T10:57:23.495Z,38.00
2024-01-24T10:59:36.597Z,40.00
2024-01-24T11:01:39.463Z,34.73
2024-01-24T11:03:43.912Z,24.73
2024-01-24T11:05:57.878Z,26.00
2024-01-24T11:08:23.682Z,30.36
2024-01-24T11:10:35.393Z,35.00
2024-01-24T11:12:38.334Z,39.00
2024-01-24T11:14:46.683Z,48.45
2024-01-24T11:16:49.506Z,84.45
2024-01-24T11:18:53.063Z,73.00
2024-01-24T11:21:01.094Z,53.18
2024-01-24T11:23:36.486Z,45.27
2024-01-24T11:25:39.554Z,42.18
2024-01-24T11:27:44.893Z,29.18
2024-01-24T11:29:47.780Z,19.64
2024-01-24T11:31:50.694Z,18.73
2024-01-24T11:34:15.554Z,23.55
2024-01-24T11:36:18.628Z,32.09
2024-01-24T11:38:26.675Z,55.64
2024-01-24T11:40:37.474Z,60.36
2024-01-24T11:42:44.585Z,61.45
2024-01-24T11:44:48.484Z,67.00
2024-01-24T11:46:53.113Z,78.45
2024-01-24T11:49:05.557Z,76.82
2024-01-24T11:51:11.858Z,89.91
2024-01-24T11:53:14.611Z,96.27
2024-01-24T11:55:17.416Z,95.64
2024-01-24T11:57:20.467Z,146.00
2024-01-24T11:59:23.315Z,139.09
2024-01-24T12:01:26.323Z,96.00
2024-01-24T12:03:29.235Z,78.45
2024-01-24T12:05:32.058Z,105.18
2024-01-24T12:07:35.070Z,112.36
2024-01-24T12:09:37.952Z,122.18
2024-01-24T12:11:40.732Z,142.73
2024-01-24T12:13:43.743Z,131.00
2024-01-24T12:15:47.398Z,136.82
2024-01-24T12:17:50.481Z,201.64
2024-01-24T12:19:54.423Z,270.09
2024-01-24T12:21:59.529Z,293.73
2024-01-24T12:24:02.751Z,302.00
2024-01-24T12:26:05.864Z,223.55
2024-01-24T12:28:09.382Z,108.09
2024-01-24T12:30:14.308Z,149.55
2024-01-24T12:32:18.610Z,150.55
2024-01-24T12:34:22.690Z,165.18
2024-01-24T12:36:26.100Z,164.18
2024-01-24T12:38:29.038Z,188.18
2024-01-24T12:40:33.027Z,127.55
2024-01-24T12:42:36.476Z,227.27
2024-01-24T12:44:39.535Z,142.27
2024-01-24T12:46:42.400Z,202.45
2024-01-24T12:48:48.643Z,310.82
2024-01-24T12:50:51.838Z,219.09
2024-01-24T12:52:54.940Z,205.82
2024-01-24T12:54:57.796Z,130.73
2024-01-24T12:57:00.644Z,96.09
2024-01-24T12:59:03.598Z,47.45
2024-01-24T13:01:06.551Z,183.82
2024-01-24T13:03:09.341Z,129.45
2024-01-24T13:05:12.415Z,84.82
2024-01-24T13:07:15.530Z,101.91
2024-01-24T13:09:18.849Z,386.55
2024-01-24T13:11:21.727Z,438.18
2024-01-24T13:13:24.663Z,449.73
2024-01-24T13:15:27.519Z,426.64
2024-01-24T13:17:30.366Z,408.73
2024-01-24T13:19:33.373Z,395.36
2024-01-24T13:21:40.431Z,323.73
2024-01-24T13:23:45.525Z,188.00
2024-01-24T13:25:48.433Z,257.73
2024-01-24T13:27:51.312Z,249.18
2024-01-24T13:29:54.565Z,266.09
2024-01-24T13:31:57.382Z,326.55
2024-01-24T13:34:00.319Z,355.73
2024-01-24T13:36:03.263Z,361.45
2024-01-24T13:38:06.043Z,199.91
2024-01-24T13:40:13.149Z,208.36
2024-01-24T13:42:16.693Z,240.00
2024-01-24T13:44:19.520Z,230.45
2024-01-24T13:46:22.369Z,180.73
2024-01-24T13:48:25.345Z,200.91
2024-01-24T13:50:28.219Z,172.55
2024-01-24T13:52:31.244Z,125.64
2024-01-24T13:54:34.044Z,122.73
2024-01-24T13:56:36.964Z,152.73
2024-01-24T13:58:39.816Z,168.36
2024-01-24T14:00:43.450Z,231.73
2024-01-24T14:02:46.893Z,263.00
2024-01-24T14:04:50.924Z,193.91
2024-01-24T14:06:54.483Z,218.64
2024-01-24T14:08:57.603Z,176.55
2024-01-24T14:11:00.744Z,59.91
2024-01-24T14:13:04.196Z,38.18
2024-01-24T14:15:15.412Z,29.09
2024-01-24T14:17:26.590Z,25.00
2024-01-24T14:19:29.529Z,28.73
2024-01-24T14:21:33.702Z,122.45
2024-01-24T14:23:36.545Z,128.09
2024-01-24T14:25:39.503Z,194.18
2024-01-24T14:27:44.221Z,372.91
2024-01-24T14:29:47.080Z,394.91
2024-01-24T14:31:49.800Z,288.09
2024-01-24T14:33:52.798Z,218.73
2024-01-24T14:35:55.616Z,188.55
2024-01-24T14:37:59.298Z,196.55
2024-01-24T14:40:02.352Z,211.27
2024-01-24T14:42:08.545Z,176.36
2024-01-24T14:44:11.509Z,147.64
2024-01-24T14:46:14.265Z,123.55
2024-01-24T14:48:17.082Z,118.55
2024-01-24T14:50:19.895Z,73.73
2024-01-24T14:52:22.709Z,100.00
2024-01-24T14:54:25.666Z,104.36
2024-01-24T14:56:28.441Z,85.27
2024-01-24T14:58:31.327Z,79.00
2024-01-24T15:00:34.201Z,96.18
2024-01-24T15:02:40.659Z,94.45
2024-01-24T15:04:43.590Z,97.00
2024-01-24T15:06:46.502Z,92.09
2024-01-24T15:08:49.277Z,79.91
2024-01-24T15:10:52.174Z,92.91
2024-01-24T15:12:55.145Z,115.27
2024-01-24T15:14:57.881Z,81.27
2024-01-24T15:17:00.785Z,211.18
2024-01-24T15:19:04.522Z,173.36
2024-01-24T15:21:11.507Z,141.82
2024-01-24T15:23:16.355Z,126.27
2024-01-24T15:25:19.902Z,112.91
2024-01-24T15:27:25.091Z,128.27
2024-01-24T15:29:29.193Z,174.00
2024-01-24T15:31:32.281Z,212.18
2024-01-24T15:33:35.586Z,238.09
2024-01-24T15:35:38.766Z,252.82
2024-01-24T15:37:42.850Z,214.45
2024-01-24T15:39:45.834Z,196.82
2024-01-24T15:41:48.690Z,135.00
2024-01-24T15:43:51.456Z,62.82
2024-01-24T15:45:54.748Z,30.45
2024-01-24T15:47:57.747Z,26.09
2024-01-24T15:50:00.991Z,30.00
2024-01-24T15:52:04.082Z,32.55
2024-01-24T15:54:06.923Z,61.82
2024-01-24T15:56:10.212Z,62.64
2024-01-24T15:58:13.018Z,114.09
2024-01-24T16:00:16.770Z,338.00
2024-01-24T16:02:19.585Z,307.55
2024-01-24T16:04:22.795Z,312.18
2024-01-24T16:06:26.116Z,436.91
2024-01-24T16:08:29.202Z,444.18
2024-01-24T16:10:32.284Z,457.73
2024-01-24T16:12:35.092Z,435.00
2024-01-24T16:14:37.903Z,413.55
2024-01-24T16:16:40.641Z,372.64
2024-01-24T16:18:44.550Z,327.36
2024-01-24T16:20:47.360Z,306.45
2024-01-24T16:22:55.512Z,326.45
2024-01-24T16:24:59.835Z,324.91
2024-01-24T16:27:02.579Z,332.64
2024-01-24T16:29:05.341Z,344.82
2024-01-24T16:31:08.153Z,330.09
2024-01-24T16:33:11.397Z,283.55
2024-01-24T16:35:15.217Z,266.00
2024-01-24T16:37:18.090Z,305.64
2024-01-24T16:39:20.885Z,304.64
2024-01-24T16:41:23.655Z,300.09
2024-01-24T16:43:37.954Z,260.18
2024-01-24T16:45:40.965Z,217.27
2024-01-24T16:47:46.138Z,179.09
2024-01-24T16:49:49.507Z,220.27
2024-01-24T16:51:52.494Z,177.73
2024-01-24T16:53:55.834Z,153.64
2024-01-24T16:55:58.712Z,157.64
2024-01-24T16:58:01.502Z,214.00
2024-01-24T17:00:05.585Z,233.91
2024-01-24T17:02:08.356Z,202.82
2024-01-24T17:04:11.239Z,142.18
2024-01-24T17:06:14.084Z,100.91
2024-01-24T17:08:16.881Z,92.27
2024-01-24T17:10:19.632Z,87.27
2024-01-24T17:12:23.136Z,82.27
2024-01-24T17:14:25.984Z,63.36
2024-01-24T17:16:28.736Z,50.45
2024-01-24T17:18:31.873Z,50.36
2024-01-24T17:20:34.753Z,32.27
2024-01-24T17:22:37.488Z,29.55
2024-01-24T17:24:40.254Z,29.36
2024-01-24T17:26:43.023Z,50.73
2024-01-24T17:28:45.968Z,57.09
2024-01-24T17:30:49.009Z,97.18
2024-01-24T17:32:52.047Z,118.55
2024-01-24T17:34:55.143Z,119.91
2024-01-24T17:36:57.972Z,60.64
2024-01-24T17:39:01.009Z,31.64
2024-01-24T17:41:04.800Z,27.18
2024-01-24T17:43:07.680Z,27.18
2024-01-24T17:45:11.113Z,33.09
2024-01-24T17:47:13.999Z,37.55
2024-01-24T17:49:17.315Z,83.18
2024-01-24T17:51:21.480Z,136.73
2024-01-24T17:53:24.275Z,112.09
2024-01-24T17:55:29.354Z,62.18
2024-01-24T17:57:33.410Z,53.64
2024-01-24T17:59:36.711Z,135.18
2024-01-24T18:01:40.202Z,139.64
2024-01-24T18:03:43.634Z,147.82
2024-01-24T18:05:47.051Z,69.55
2024-01-24T18:07:50.180Z,55.91
2024-01-24T18:09:56.496Z,39.27
2024-01-24T18:11:59.912Z,74.27
2024-01-24T18:14:03.141Z,133.91
2024-01-24T18:16:06.676Z,128.82
2024-01-24T18:18:11.365Z,127.09
2024-01-24T18:20:14.607Z,142.91
2024-01-24T18:22:17.601Z,128.64
2024-01-24T18:24:20.562Z,136.09
2024-01-24T18:26:23.627Z,132.27
2024-01-24T18:28:27.173Z,129.82
2024-01-24T18:30:31.154Z,120.45
2024-01-24T18:32:35.762Z,116.09
2024-01-24T18:34:39.710Z,118.09
2024-01-24T18:36:43.269Z,89.45
2024-01-24T18:38:47.079Z,104.27
2024-01-24T18:40:50.907Z,99.73
2024-01-24T18:42:54.555Z,123.00
2024-01-24T18:44:58.936Z,163.00
2024-01-24T18:47:02.409Z,172.18
2024-01-24T18:49:05.772Z,109.55
2024-01-24T18:51:10.915Z,115.36
2024-01-24T18:53:14.543Z,158.45
2024-01-24T18:55:19.038Z,185.18
2024-01-24T18:57:28.460Z,162.55
2024-01-24T18:59:32.779Z,108.18
2024-01-24T19:01:39.364Z,109.27
2024-01-24T19:03:43.433Z,108.64
2024-01-24T19:05:47.972Z,102.73
2024-01-24T19:07:52.723Z,96.55
2024-01-24T19:09:59.013Z,102.09
2024-01-24T19:12:02.668Z,120.18
2024-01-24T19:14:06.436Z,140.09
2024-01-24T19:16:10.053Z,224.73
2024-01-24T19:18:17.306Z,284.73
2024-01-24T19:20:22.533Z,219.36
2024-01-24T19:22:26.139Z,167.45
2024-01-24T19:24:29.687Z,128.18
2024-01-24T19:26:36.002Z,135.82
2024-01-24T19:28:40.300Z,142.55
2024-01-24T19:30:44.046Z,149.18
2024-01-24T19:32:48.929Z,170.82
2024-01-24T19:34:54.391Z,185.09
2024-01-24T19:36:58.263Z,184.00
2024-01-24T19:39:02.096Z,179.73
2024-01-24T19:41:06.116Z,178.09
2024-01-24T19:43:11.727Z,175.82
2024-01-24T19:45:15.704Z,169.91
2024-01-24T19:47:21.315Z,160.55
2024-01-24T19:49:25.903Z,160.45
2024-01-24T19:51:30.235Z,175.00
2024-01-24T19:53:34.953Z,198.27
2024-01-24T19:55:39.383Z,189.27
2024-01-24T19:57:43.375Z,179.45
2024-01-24T19:59:48.809Z,151.82
2024-01-24T20:01:53.392Z,153.91
2024-01-24T20:03:57.206Z,154.55
2024-01-24T20:06:04.272Z,158.00
2024-01-24T20:08:08.424Z,165.55
2024-01-24T20:10:12.585Z,207.73
2024-01-24T20:12:18.006Z,238.00
2024-01-24T20:14:22.773Z,231.64
2024-01-24T20:16:27.032Z,244.00
2024-01-24T20:18:31.253Z,248.45
2024-01-24T20:20:35.540Z,234.00
2024-01-24T20:22:39.457Z,225.45
2024-01-24T20:24:44.978Z,222.55
2024-01-24T20:26:49.877Z,237.00
2024-01-24T20:28:54.572Z,271.45
2024-01-24T20:30:58.723Z,270.82
2024-01-24T20:33:05.193Z,257.27
2024-01-24T20:35:10.260Z,241.36
2024-01-24T20:37:14.553Z,225.00
2024-01-24T20:39:20.056Z,201.55
2024-01-24T20:41:25.011Z,182.64
2024-01-24T20:43:29.933Z,183.55
2024-01-24T20:45:35.681Z,178.09
2024-01-24T20:47:39.878Z,159.27
2024-01-24T20:49:44.065Z,144.00
2024-01-24T20:51:50.438Z,145.00
2024-01-24T20:53:54.227Z,142.55
2024-01-24T20:55:58.137Z,144.09
2024-01-24T20:58:01.804Z,135.73
2024-01-24T21:00:08.379Z,125.36
2024-01-24T21:02:12.254Z,109.18
2024-01-24T21:04:16.405Z,99.00
2024-01-24T21:06:23.742Z,92.45
2024-01-24T21:08:27.378Z,77.55
2024-01-24T21:10:30.767Z,74.09
2024-01-24T21:12:34.035Z,67.91
2024-01-24T21:14:37.408Z,67.82
2024-01-24T21:16:40.610Z,61.27
2024-01-24T21:18:45.073Z,45.64
2024-01-24T21:20:48.165Z,37.09
2024-01-24T21:22:51.168Z,26.82
2024-01-24T21:24:54.481Z,27.64
2024-01-24T21:26:57.387Z,26.09
2024-01-24T21:29:00.194Z,25.91
2024-01-24T21:31:03.068Z,24.09
2024-01-24T21:33:05.907Z,21.36
2024-01-24T21:35:10.440Z,21.82
2024-01-24T21:37:13.289Z,21.09
2024-01-24T21:39:16.080Z,18.45
2024-01-24T21:41:18.821Z,17.18
2024-01-24T21:43:22.781Z,18.00
2024-01-24T21:45:25.511Z,19.00
2024-01-24T21:47:28.574Z,18.36
2024-01-24T21:49:32.461Z,15.91
2024-01-24T21:51:35.231Z,14.91
2024-01-24T21:53:37.962Z,12.82
2024-01-24T21:55:40.795Z,11.91
2024-01-24T21:57:50.022Z,11.00
2024-01-24T21:59:54.088Z,10.18
2024-01-24T22:01:57.401Z,10.00
2024-01-24T22:04:00.451Z,9.36
2024-01-24T22:06:03.407Z,7.82
2024-01-24T22:08:07.958Z,6.27
2024-01-24T22:10:10.762Z,5.73
2024-01-24T22:12:13.909Z,5.45
2024-01-24T22:14:16.649Z,6.00
2024-01-24T22:16:19.536Z,7.00
2024-01-24T22:18:25.273Z,7.73
2024-01-24T22:20:32.849Z,8.00
2024-01-24T22:22:36.590Z,7.91
2024-01-24T22:24:39.551Z,6.82
2024-01-24T22:26:42.662Z,6.00
2024-01-24T22:28:45.406Z,6.00
2024-01-24T22:30:48.977Z,6.00
2024-01-24T22:32:51.749Z,6.00
2024-01-24T22:34:54.635Z,6.00
2024-01-24T22:36:57.439Z,6.00
2024-01-24T22:39:00.251Z,6.00
2024-01-24T22:41:02.957Z,6.00
2024-01-24T22:43:05.728Z,6.82
2024-01-24T22:45:08.818Z,6.09
2024-01-24T22:47:11.525Z,5.82
2024-01-24T22:49:14.595Z,5.00
2024-01-24T22:51:17.378Z,5.00
2024-01-24T22:53:20.114Z,4.09
2024-01-24T22:55:22.993Z,4.00
2024-01-24T22:57:25.776Z,4.00
2024-01-24T22:59:28.495Z,4.00
2024-01-24T23:01:32.087Z,4.00
2024-01-24T23:03:34.953Z,4.00
2024-01-24T23:05:37.834Z,4.00
2024-01-24T23:07:41.754Z,4.00
2024-01-24T23:09:44.620Z,4.00
2024-01-24T23:11:47.416Z,4.00
2024-01-24T23:13:50.126Z,4.00
2024-01-24T23:15:53.349Z,4.82
2024-01-24T23:17:56.143Z,5.36
2024-01-24T23:19:59.088Z,8.36
2024-01-24T23:22:01.960Z,10.00
2024-01-24T23:24:05.072Z,11.27
2024-01-24T23:26:07.814Z,12.00
2024-01-24T23:28:10.535Z,11.64
2024-01-24T23:30:13.574Z,10.64
2024-01-24T23:32:16.765Z,10.00
2024-01-24T23:34:19.661Z,10.00
2024-01-24T23:36:22.469Z,10.45
2024-01-24T23:38:25.356Z,12.45
2024-01-24T23:40:28.227Z,14.91
2024-01-24T23:42:31.056Z,16.00
2024-01-24T23:44:35.506Z,18.73
2024-01-24T23:46:38.492Z,35.09
2024-01-24T23:48:41.361Z,32.36
2024-01-24T23:50:44.624Z,26.91
2024-01-24T23:52:47.570Z,18.64
2024-01-24T23:54:50.351Z,8.45
2024-01-24T23:56:53.092Z,5.18
2024-01-24T23:58:55.815Z,4.09
